Time;durP1;ratioP1;P1;durP2;ratioP2;P2;SDS_P1;SDS_P2;PMS_P1;PMS_P2;Temp;Humidity;BMP_temperature;BMP_pressure;BME280_temperature;BME280_humidity;BME280_pressure;Samples;Min_cycle;Max_cycle;Signal;HPM_P1;HPM_P2
2021/11/27 00:00:33;;;;;;;9.38;7.60;;;5.40;99.90;;;;;;5036491;28;20119;-78
2021/11/27 00:02:59;;;;;;;;;;;5.40;99.90;;;;;;5056387;28;20094;-78
2021/11/27 00:05:26;;;;;;;6.90;6.18;;;5.40;99.90;;;;;;5038525;28;19913;-78
2021/11/27 00:07:53;;;;;;;8.68;6.78;;;5.40;99.90;;;;;;5039195;28;20032;-78
2021/11/27 00:10:21;;;;;;;10.85;6.22;;;5.40;99.90;;;;;;5073706;28;20028;-78
2021/11/27 00:12:48;;;;;;;7.32;6.28;;;5.40;99.90;;;;;;5073576;28;20066;-78
2021/11/27 00:15:15;;;;;;;9.00;6.15;;;5.40;99.90;;;;;;5073349;28;20055;-78
2021/11/27 00:17:41;;;;;;;8.27;6.25;;;5.50;99.90;;;;;;5035194;28;20014;-79
2021/11/27 00:20:11;;;;;;;12.45;6.88;;;5.50;99.90;;;;;;5050706;28;20020;-79
2021/11/27 00:22:37;;;;;;;7.03;6.20;;;5.50;99.90;;;;;;5073710;28;20078;-79
2021/11/27 00:25:04;;;;;;;10.70;7.97;;;5.50;99.90;;;;;;5055535;28;20032;-78
2021/11/27 00:27:29;;;;;;;12.00;8.55;;;5.50;99.90;;;;;;5055834;28;20041;-78
2021/11/27 00:29:55;;;;;;;8.38;7.50;;;5.50;99.90;;;;;;5055310;28;20476;-78
2021/11/27 00:32:22;;;;;;;11.20;7.50;;;5.40;99.90;;;;;;5055380;28;20462;-78
2021/11/27 00:34:47;;;;;;;9.75;6.88;;;5.30;99.90;;;;;;5055255;28;20033;-79
2021/11/27 00:37:13;;;;;;;7.97;6.00;;;5.30;99.90;;;;;;5055069;28;20028;-78
2021/11/27 00:39:39;;;;;;;5.18;4.68;;;5.20;99.90;;;;;;5055302;28;20036;-78
2021/11/27 00:42:05;;;;;;;4.22;3.15;;;5.20;99.90;;;;;;5072519;28;20036;-78
2021/11/27 00:44:31;;;;;;;4.38;3.55;;;5.10;99.90;;;;;;5055038;28;20033;-78
2021/11/27 00:46:56;;;;;;;6.20;3.67;;;5.00;99.90;;;;;;5054516;28;20035;-78
2021/11/27 00:49:23;;;;;;;2.83;2.63;;;4.90;99.80;;;;;;5037892;28;20036;-78
2021/11/27 00:51:49;;;;;;;3.50;3.20;;;4.90;99.90;;;;;;5053371;28;20025;-78
2021/11/27 00:54:20;;;;;;;3.35;2.90;;;4.80;99.80;;;;;;5071607;28;20028;-79
2021/11/27 00:56:46;;;;;;;4.43;3.50;;;4.80;99.90;;;;;;5053659;28;20016;-78
2021/11/27 00:59:12;;;;;;;3.35;3.05;;;4.70;99.90;;;;;;5072005;28;20029;-78
2021/11/27 01:01:38;;;;;;;3.50;3.20;;;4.80;99.90;;;;;;5053841;28;20031;-78
2021/11/27 01:04:04;;;;;;;3.22;2.92;;;4.80;99.90;;;;;;5053699;28;20025;-78
2021/11/27 01:06:30;;;;;;;3.45;3.15;;;4.70;99.80;;;;;;5053863;28;20033;-78
2021/11/27 01:09:03;;;;;;;3.47;3.17;;;4.70;99.70;;;;;;5071196;28;20036;-78
2021/11/27 01:11:32;;;;;;;4.57;2.88;;;4.60;99.70;;;;;;5051173;28;20067;-78
2021/11/27 01:14:05;;;;;;;2.83;2.63;;;4.60;99.70;;;;;;5070959;28;20040;-78
2021/11/27 01:16:36;;;;;;;2.85;2.55;;;4.60;99.60;;;;;;5052691;28;20113;-78
2021/11/27 01:19:03;;;;;;;2.65;2.45;;;4.50;99.50;;;;;;5066851;28;20066;-78
2021/11/27 01:21:32;;;;;;;2.50;2.30;;;4.50;99.40;;;;;;5052643;28;20016;-78
2021/11/27 01:24:03;;;;;;;2.22;2.08;;;4.40;99.40;;;;;;5070795;28;20431;-78
2021/11/27 01:26:30;;;;;;;2.30;2.10;;;4.40;99.20;;;;;;5053184;28;20024;-78
2021/11/27 01:28:55;;;;;;;2.15;2.05;;;4.30;99.20;;;;;;5037163;28;20033;-78
2021/11/27 01:31:21;;;;;;;2.38;2.17;;;4.20;99.20;;;;;;5053842;28;20622;-78
2021/11/27 01:33:47;;;;;;;2.10;1.98;;;4.20;99.10;;;;;;5053557;28;20070;-78
2021/11/27 01:36:13;;;;;;;2.05;1.88;;;4.10;99.10;;;;;;5071106;28;20107;-78
2021/11/27 01:38:39;;;;;;;2.85;1.88;;;4.00;99.10;;;;;;5053618;28;20453;-78
2021/11/27 01:41:05;;;;;;;2.92;1.50;;;4.00;99.10;;;;;;5070362;28;20472;-78
2021/11/27 01:43:32;;;;;;;1.60;1.50;;;3.90;99.10;;;;;;5034790;28;20419;-78
2021/11/27 01:45:58;;;;;;;2.38;2.17;;;3.90;99.20;;;;;;5052100;28;20036;-78
2021/11/27 01:48:25;;;;;;;2.00;1.75;;;3.80;99.10;;;;;;5070425;28;20044;-78
2021/11/27 01:51:15;;;;;;;2.22;2.03;;;3.80;99.10;;;;;;5051201;28;20378;-78
2021/11/27 01:53:44;;;;;;;2.83;2.60;;;3.80;99.10;;;;;;5055319;28;20070;-78
2021/11/27 01:56:15;;;;;;;2.83;2.35;;;3.70;98.90;;;;;;5050048;28;20037;-78
2021/11/27 01:58:41;;;;;;;2.85;2.47;;;3.70;98.90;;;;;;5068214;28;20032;-78
2021/11/27 02:01:13;;;;;;;3.42;2.22;;;3.60;98.80;;;;;;5049931;28;20823;-78
2021/11/27 02:03:41;;;;;;;2.72;2.53;;;3.50;98.80;;;;;;5050643;28;20028;-78
2021/11/27 02:06:08;;;;;;;3.20;2.90;;;3.50;98.90;;;;;;5050903;28;20493;-78
2021/11/27 02:08:35;;;;;;;3.22;2.72;;;3.40;98.80;;;;;;5035430;28;20028;-78
2021/11/27 02:11:02;;;;;;;3.08;2.80;;;3.30;98.80;;;;;;5050703;28;20405;-78
2021/11/27 02:13:28;;;;;;;3.20;2.90;;;3.30;98.90;;;;;;5057482;28;20065;-78
2021/11/27 02:15:53;;;;;;;4.65;2.53;;;3.30;98.90;;;;;;5068139;28;20055;-78
2021/11/27 02:18:19;;;;;;;4.38;2.90;;;3.20;98.90;;;;;;5051032;28;20497;-78
2021/11/27 02:20:57;;;;;;;3.20;2.90;;;3.20;98.90;;;;;;5050703;28;20032;-78
2021/11/27 02:23:23;;;;;;;3.88;3.45;;;3.20;99.00;;;;;;5068027;28;20752;-78
2021/11/27 02:25:50;;;;;;;5.28;3.13;;;3.20;99.00;;;;;;5067716;28;20041;-78
2021/11/27 02:28:16;;;;;;;3.40;3.03;;;3.20;99.10;;;;;;5068208;28;20025;-78
2021/11/27 02:30:42;;;;;;;9.23;4.10;;;3.20;99.10;;;;;;5067287;28;20035;-78
2021/11/27 02:33:08;;;;;;;3.95;3.50;;;3.20;99.00;;;;;;5044416;28;20036;-78
2021/11/27 02:35:33;;;;;;;4.82;3.78;;;3.20;99.00;;;;;;5067797;28;20114;-78
2021/11/27 02:37:59;;;;;;;8.10;4.43;;;3.20;99.00;;;;;;5066941;28;20133;-78
2021/11/27 02:40:26;;;;;;;4.28;3.33;;;3.20;99.00;;;;;;5070521;28;20033;-78
2021/11/27 02:42:52;;;;;;;4.10;3.65;;;3.20;99.10;;;;;;5071624;28;20036;-78
2021/11/27 02:45:18;;;;;;;8.40;5.35;;;3.10;99.10;;;;;;5052358;28;20490;-78
2021/11/27 02:47:44;;;;;;;5.45;4.45;;;3.10;99.20;;;;;;5053006;28;20055;-78
2021/11/27 02:50:12;;;;;;;5.63;4.45;;;3.20;99.20;;;;;;5072034;28;20040;-78
2021/11/27 02:52:40;;;;;;;4.97;4.10;;;3.20;99.30;;;;;;5071554;28;20025;-78
2021/11/27 02:55:06;;;;;;;5.00;4.30;;;3.20;99.30;;;;;;5070387;28;20055;-78
2021/11/27 02:57:33;;;;;;;4.90;4.00;;;3.20;99.30;;;;;;5053897;28;20393;-78
2021/11/27 03:00:01;;;;;;;4.65;3.50;;;3.30;99.20;;;;;;5068676;28;20028;-78
2021/11/27 03:02:26;;;;;;;5.35;3.97;;;3.30;99.20;;;;;;5069897;28;20066;-78
2021/11/27 03:04:52;;;;;;;8.27;5.03;;;3.30;99.10;;;;;;5070713;28;20024;-78
2021/11/27 03:07:19;;;;;;;5.28;4.28;;;3.20;99.20;;;;;;5071821;28;20476;-78
2021/11/27 03:09:45;;;;;;;5.63;4.30;;;3.20;99.20;;;;;;5053950;28;20097;-78
2021/11/27 03:12:11;;;;;;;5.75;4.43;;;3.20;99.30;;;;;;5071502;28;20079;-78
2021/11/27 03:14:37;;;;;;;8.32;5.20;;;3.20;99.30;;;;;;5071229;28;20090;-78
2021/11/27 03:17:03;;;;;;;7.75;5.10;;;3.20;99.40;;;;;;5029162;28;20033;-78
2021/11/27 03:19:32;;;;;;;7.10;4.90;;;3.20;99.50;;;;;;5053124;28;20128;-78
2021/11/27 03:21:59;;;;;;;6.90;5.45;;;3.30;99.50;;;;;;5071185;28;20036;-78
2021/11/27 03:24:25;;;;;;;7.63;6.05;;;3.30;99.40;;;;;;5036025;28;20362;-78
2021/11/27 03:26:51;;;;;;;8.60;6.50;;;3.30;99.40;;;;;;5014236;28;20056;-78
2021/11/27 03:29:16;;;;;;;9.98;6.35;;;3.40;99.50;;;;;;5072487;28;20044;-78
2021/11/27 03:31:42;;;;;;;8.25;6.32;;;3.40;99.50;;;;;;5034149;28;20079;-78
2021/11/27 03:34:08;;;;;;;13.18;7.53;;;3.40;99.50;;;;;;5070737;28;20029;-78
2021/11/27 03:36:34;;;;;;;9.60;7.30;;;3.50;99.50;;;;;;5052702;28;20055;-79
2021/11/27 03:39:00;;;;;;;7.70;5.95;;;3.60;99.50;;;;;;5070694;28;20421;-78
2021/11/27 03:41:26;;;;;;;8.88;6.55;;;3.60;99.50;;;;;;5053009;28;20043;-78
2021/11/27 03:43:51;;;;;;;13.05;8.30;;;3.70;99.50;;;;;;5070466;28;20035;-79
2021/11/27 03:46:17;;;;;;;10.75;7.72;;;3.60;99.40;;;;;;5052685;28;20040;-79
2021/11/27 03:48:44;;;;;;;10.32;7.90;;;3.70;99.50;;;;;;5051868;28;20032;-78
2021/11/27 03:51:16;;;;;;;11.82;8.40;;;3.70;99.50;;;;;;5051453;28;20036;-79
2021/11/27 03:53:44;;;;;;;15.75;8.82;;;3.70;99.50;;;;;;5052224;28;20028;-78
2021/11/27 03:56:13;;;;;;;14.30;10.55;;;3.80;99.50;;;;;;5025733;28;20031;-78
2021/11/27 03:58:39;;;;;;;17.25;10.75;;;3.80;99.50;;;;;;5052267;28;20036;-78
2021/11/27 04:01:08;;;;;;;16.15;9.85;;;3.80;99.40;;;;;;5052351;28;20043;-79
2021/11/27 04:03:34;;;;;;;16.15;10.68;;;3.80;99.40;;;;;;5051974;28;20051;-78
2021/11/27 04:06:01;;;;;;;16.00;10.07;;;3.80;99.40;;;;;;5070100;28;20029;-78
2021/11/27 04:08:27;;;;;;;16.85;11.63;;;3.80;99.50;;;;;;5033098;28;20056;-78
2021/11/27 04:10:53;;;;;;;16.77;10.77;;;3.80;99.50;;;;;;5051477;28;20028;-78
2021/11/27 04:13:19;;;;;;;14.90;10.70;;;3.80;99.50;;;;;;5037813;28;20044;-78
2021/11/27 04:15:46;;;;;;;15.75;11.00;;;3.80;99.50;;;;;;5066387;28;20040;-78
2021/11/27 04:18:12;;;;;;;15.65;10.80;;;3.80;99.50;;;;;;5068966;28;20026;-79
2021/11/27 04:20:39;;;;;;;13.50;10.52;;;3.80;99.50;;;;;;5052376;28;20417;-78
2021/11/27 04:23:05;;;;;;;17.90;10.80;;;3.80;99.50;;;;;;5052049;28;20082;-78
2021/11/27 04:25:31;;;;;;;15.68;10.80;;;3.80;99.50;;;;;;5069446;28;20082;-78
2021/11/27 04:27:57;;;;;;;19.58;12.00;;;3.80;99.50;;;;;;5070781;28;20024;-78
2021/11/27 04:30:25;;;;;;;19.90;12.13;;;3.80;99.50;;;;;;5052552;28;20032;-79
2021/11/27 04:32:52;;;;;;;20.25;12.18;;;3.80;99.50;;;;;;5071044;28;20024;-78
2021/11/27 04:35:19;;;;;;;19.95;13.20;;;3.80;99.50;;;;;;5067205;28;20119;-79
2021/11/27 04:37:45;;;;;;;18.13;12.85;;;3.80;99.50;;;;;;5052937;28;20079;-78
2021/11/27 04:40:12;;;;;;;24.92;13.80;;;3.80;99.50;;;;;;5070950;28;20048;-78
2021/11/27 04:42:37;;;;;;;21.45;13.23;;;3.90;99.60;;;;;;5067416;28;20393;-79
2021/11/27 04:45:05;;;;;;;20.60;13.70;;;3.90;99.60;;;;;;5068836;28;20035;-78
2021/11/27 04:47:31;;;;;;;22.02;14.43;;;3.90;99.60;;;;;;5049360;28;20063;-78
2021/11/27 04:49:57;;;;;;;21.10;14.07;;;4.00;99.60;;;;;;5067956;28;20028;-79
2021/11/27 04:52:24;;;;;;;19.30;12.80;;;4.00;99.50;;;;;;5067818;28;20038;-79
2021/11/27 04:54:50;;;;;;;20.02;14.52;;;4.00;99.50;;;;;;5067479;28;20547;-78
2021/11/27 04:57:16;;;;;;;25.50;15.13;;;4.00;99.50;;;;;;5067678;28;20032;-78
2021/11/27 04:59:42;;;;;;;21.70;14.20;;;4.00;99.50;;;;;;5051323;28;20742;-78
2021/11/27 05:02:08;;;;;;;21.58;14.20;;;4.00;99.50;;;;;;5068576;28;20480;-78
2021/11/27 05:04:34;;;;;;;17.13;12.48;;;4.00;99.50;;;;;;5023425;28;20055;-78
2021/11/27 05:07:00;;;;;;;21.55;13.23;;;4.00;99.50;;;;;;5065268;28;20024;-78
2021/11/27 05:09:25;;;;;;;16.75;12.27;;;4.00;99.50;;;;;;5066901;28;20077;-78
2021/11/27 05:11:51;;;;;;;24.50;14.27;;;4.00;99.70;;;;;;5028256;28;20097;-78
2021/11/27 05:14:17;;;;;;;20.08;12.70;;;4.00;99.40;;;;;;5051015;28;20067;-78
2021/11/27 05:16:42;;;;;;;20.38;12.70;;;3.90;99.40;;;;;;5022732;28;20470;-78
2021/11/27 05:19:08;;;;;;;18.48;13.05;;;3.90;99.40;;;;;;5067584;28;20035;-78
2021/11/27 05:21:33;;;;;;;17.55;11.63;;;3.80;99.40;;;;;;5067512;28;20490;-78
2021/11/27 05:23:59;;;;;;;17.63;11.07;;;3.80;99.40;;;;;;5048414;28;20078;-78
2021/11/27 05:26:25;;;;;;;17.80;12.18;;;3.70;99.70;;;;;;5070249;28;20039;-78
2021/11/27 05:28:51;;;;;;;18.63;12.00;;;3.60;99.30;;;;;;5066640;28;20040;-78
2021/11/27 05:31:18;;;;;;;20.70;12.07;;;3.60;99.30;;;;;;5049487;28;20028;-78
2021/11/27 05:36:16;;;;;;;18.73;12.77;;;3.50;99.30;;;;;;5069451;28;20047;-78
2021/11/27 05:38:43;;;;;;;24.00;13.40;;;3.50;99.30;;;;;;5057867;28;20024;-79
2021/11/27 05:41:09;;;;;;;26.38;12.27;;;3.50;99.30;;;;;;5069242;28;20093;-82
2021/11/27 05:43:35;;;;;;;19.70;12.88;;;3.50;99.30;;;;;;5068614;28;20107;-83
2021/11/27 05:46:01;;;;;;;21.17;13.25;;;3.50;99.30;;;;;;5070025;28;20400;-82
2021/11/27 05:48:27;;;;;;;16.85;11.48;;;3.60;99.30;;;;;;5054183;28;20034;-82
2021/11/27 05:50:52;;;;;;;21.30;12.02;;;3.60;99.30;;;;;;5050230;28;20029;-83
2021/11/27 05:53:19;;;;;;;19.75;11.77;;;3.60;99.40;;;;;;5070707;28;20040;-82
2021/11/27 05:55:49;;;;;;;18.65;11.48;;;3.60;99.40;;;;;;5070362;28;20481;-79
2021/11/27 05:58:16;;;;;;;18.58;12.25;;;3.70;99.40;;;;;;5064779;28;20111;-78
2021/11/27 06:00:42;;;;;;;21.27;12.00;;;3.70;99.50;;;;;;5053600;28;20033;-78
2021/11/27 06:03:09;;;;;;;22.60;13.07;;;3.70;99.50;;;;;;5070609;28;20082;-80
2021/11/27 06:05:35;;;;;;;18.05;11.85;;;3.80;99.40;;;;;;5070281;28;20031;-80
2021/11/27 06:08:01;;;;;;;17.42;11.68;;;3.80;99.40;;;;;;5022486;28;20098;-80
2021/11/27 06:10:26;;;;;;;22.88;13.40;;;3.80;99.40;;;;;;5063333;28;20472;-81
2021/11/27 06:12:52;;;;;;;20.50;12.18;;;3.90;99.50;;;;;;5070617;28;20078;-80
2021/11/27 06:15:18;;;;;;;25.00;14.73;;;3.90;99.50;;;;;;5055516;28;20029;-81
2021/11/27 06:17:43;;;;;;;23.25;12.82;;;3.90;99.50;;;;;;5073874;28;20503;-80
2021/11/27 06:20:10;;;;;;;20.27;11.68;;;4.00;99.50;;;;;;5055958;28;20382;-80
2021/11/27 06:22:35;;;;;;;25.52;13.68;;;4.00;99.50;;;;;;5038698;28;20031;-81
2021/11/27 06:25:01;;;;;;;24.40;13.05;;;4.00;99.50;;;;;;5056249;28;20773;-80
2021/11/27 06:27:27;;;;;;;21.67;13.73;;;4.00;99.50;;;;;;5074956;28;20671;-81
2021/11/27 06:29:52;;;;;;;24.50;12.52;;;4.10;99.50;;;;;;5075362;28;20040;-81
2021/11/27 06:32:24;;;;;;;22.98;14.02;;;4.00;99.50;;;;;;5057805;28;20060;-81
2021/11/27 06:34:51;;;;;;;19.95;12.68;;;4.00;99.50;;;;;;5058247;28;20111;-80
2021/11/27 06:37:21;;;;;;;24.55;13.63;;;4.10;99.40;;;;;;5057001;28;20032;-80
2021/11/27 06:39:49;;;;;;;23.67;13.90;;;4.10;99.50;;;;;;5056945;28;20100;-80
2021/11/27 06:42:15;;;;;;;22.45;12.85;;;4.00;99.40;;;;;;5057676;28;20029;-81
2021/11/27 06:44:47;;;;;;;26.10;14.77;;;4.10;99.50;;;;;;5075460;28;20550;-81
2021/11/27 06:47:17;;;;;;;21.08;12.65;;;4.10;99.50;;;;;;5075616;28;20044;-81
2021/11/27 06:49:44;;;;;;;23.33;12.93;;;4.10;99.50;;;;;;5057559;28;20052;-81
2021/11/27 06:52:11;;;;;;;19.05;12.02;;;4.10;99.50;;;;;;5075080;28;20500;-81
2021/11/27 06:54:37;;;;;;;23.02;12.88;;;4.10;99.50;;;;;;5040498;28;20032;-81
2021/11/27 06:57:03;;;;;;;27.48;13.63;;;4.10;99.50;;;;;;5057310;28;20028;-81
2021/11/27 06:59:28;;;;;;;25.77;13.23;;;4.00;99.40;;;;;;5040742;28;20946;-81
2021/11/27 07:01:54;;;;;;;26.77;13.77;;;4.00;99.40;;;;;;5075229;28;20070;-80
2021/11/27 07:04:21;;;;;;;23.63;12.10;;;4.00;99.40;;;;;;5024013;28;20632;-81
2021/11/27 07:06:48;;;;;;;19.30;11.43;;;3.90;99.30;;;;;;5057201;28;20504;-80
2021/11/27 07:09:13;;;;;;;22.88;12.65;;;3.80;99.30;;;;;;5057087;28;20037;-80
2021/11/27 07:11:39;;;;;;;23.88;12.73;;;3.70;99.30;;;;;;5057136;28;20358;-80
2021/11/27 07:14:05;;;;;;;23.50;13.15;;;3.70;99.30;;;;;;5074421;28;20044;-80
2021/11/27 07:16:30;;;;;;;29.70;13.13;;;3.60;99.30;;;;;;5075535;28;20024;-80
2021/11/27 07:18:56;;;;;;;25.52;13.85;;;3.60;99.30;;;;;;5039734;28;20033;-80
2021/11/27 07:21:22;;;;;;;26.15;13.43;;;3.50;99.20;;;;;;5055666;28;20029;-81
2021/11/27 07:23:48;;;;;;;25.95;12.77;;;3.40;99.20;;;;;;5037651;28;20486;-81
2021/11/27 07:26:13;;;;;;;22.60;13.07;;;3.40;99.30;;;;;;5043287;28;20496;-81
2021/11/27 07:28:39;;;;;;;23.25;12.85;;;3.30;99.20;;;;;;5057205;28;20102;-80
2021/11/27 07:31:05;;;;;;;21.98;13.52;;;3.30;99.30;;;;;;5057592;28;20123;-81
2021/11/27 07:33:31;;;;;;;33.75;14.60;;;3.20;99.20;;;;;;5075354;28;20074;-81
2021/11/27 07:35:57;;;;;;;25.17;12.65;;;3.10;99.20;;;;;;5057373;28;20021;-81
2021/11/27 07:38:22;;;;;;;33.85;14.35;;;3.10;99.20;;;;;;5040451;28;22165;-80
2021/11/27 07:40:48;;;;;;;25.77;12.05;;;3.10;99.20;;;;;;5057091;28;20128;-80
2021/11/27 07:43:14;;;;;;;27.77;13.57;;;3.00;99.20;;;;;;5070971;28;20048;-81
2021/11/27 07:45:40;;;;;;;26.45;13.32;;;3.00;99.20;;;;;;5074838;28;20033;-80
2021/11/27 07:48:06;;;;;;;21.73;13.07;;;3.00;99.20;;;;;;5074441;28;20044;-80
2021/11/27 07:50:32;;;;;;;34.33;14.27;;;3.00;99.20;;;;;;5037258;28;20732;-81
2021/11/27 07:52:58;;;;;;;26.77;13.65;;;2.90;99.20;;;;;;5036705;28;20036;-81
2021/11/27 07:55:24;;;;;;;24.10;12.85;;;2.90;99.20;;;;;;5037841;28;20441;-80
2021/11/27 07:57:49;;;;;;;28.17;14.48;;;2.90;99.20;;;;;;5039660;28;20037;-80
2021/11/27 08:00:15;;;;;;;25.67;13.25;;;2.90;99.20;;;;;;5036301;28;20029;-80
2021/11/27 08:02:41;;;;;;;29.42;14.73;;;3.00;99.20;;;;;;5019835;28;20386;-81
2021/11/27 08:05:07;;;;;;;28.27;14.57;;;3.00;99.20;;;;;;5019803;28;20067;-80
2021/11/27 08:07:35;;;;;;;25.92;13.82;;;3.00;99.10;;;;;;5055703;28;20024;-80
2021/11/27 08:10:06;;;;;;;35.25;15.57;;;3.10;99.10;;;;;;5074135;28;20059;-80
2021/11/27 08:12:31;;;;;;;29.45;16.20;;;3.10;99.10;;;;;;5071751;28;20114;-81
2021/11/27 08:14:57;;;;;;;33.33;14.63;;;3.10;99.10;;;;;;5050056;28;20080;-80
2021/11/27 08:17:23;;;;;;;32.42;14.50;;;3.10;99.10;;;;;;5065629;28;20389;-80
2021/11/27 08:19:48;;;;;;;29.75;15.02;;;3.20;99.10;;;;;;5073404;28;20021;-81
2021/11/27 08:22:14;;;;;;;30.13;14.85;;;3.20;99.00;;;;;;5072094;28;20546;-80
2021/11/27 08:24:39;;;;;;;30.73;15.52;;;3.20;99.00;;;;;;5052153;28;20028;-80
2021/11/27 08:27:05;;;;;;;32.97;15.07;;;3.20;99.00;;;;;;5069784;28;20016;-81
2021/11/27 08:29:31;;;;;;;29.50;16.27;;;3.30;99.00;;;;;;5072959;28;20098;-80
2021/11/27 08:31:56;;;;;;;32.30;14.90;;;3.30;99.00;;;;;;5070634;28;21960;-80
2021/11/27 08:34:23;;;;;;;33.88;16.95;;;3.30;99.00;;;;;;5052914;28;20032;-81
2021/11/27 08:36:49;;;;;;;32.47;15.45;;;3.30;99.00;;;;;;5062198;28;20083;-79
2021/11/27 08:39:15;;;;;;;32.10;15.77;;;3.40;99.00;;;;;;5042331;28;20064;-79
2021/11/27 08:41:42;;;;;;;26.27;13.65;;;3.40;99.00;;;;;;5060658;28;20493;-79
2021/11/27 08:44:08;;;;;;;34.25;15.80;;;3.40;99.00;;;;;;5073117;28;20134;-79
2021/11/27 08:46:34;;;;;;;37.65;16.60;;;3.50;98.90;;;;;;5073160;28;20477;-79
2021/11/27 08:49:00;;;;;;;29.80;15.48;;;3.50;98.90;;;;;;5072894;28;20043;-79
2021/11/27 08:51:26;;;;;;;32.60;16.90;;;3.50;98.90;;;;;;5065504;28;20028;-81
2021/11/27 08:53:51;;;;;;;39.95;16.92;;;3.60;98.90;;;;;;5069975;28;20029;-81
2021/11/27 08:56:17;;;;;;;35.67;17.10;;;3.70;99.00;;;;;;5053066;28;20078;-81
2021/11/27 08:58:43;;;;;;;36.95;16.75;;;3.70;98.90;;;;;;5070242;28;20023;-81
2021/11/27 09:01:10;;;;;;;39.15;17.40;;;3.70;98.80;;;;;;5067961;28;20052;-81
2021/11/27 09:03:36;;;;;;;36.60;17.13;;;3.80;98.90;;;;;;5068874;28;20025;-81
2021/11/27 09:06:03;;;;;;;39.55;16.77;;;3.90;98.80;;;;;;5073494;28;20481;-81
2021/11/27 09:08:28;;;;;;;31.58;15.75;;;3.90;98.80;;;;;;5072388;28;20052;-81
2021/11/27 09:10:55;;;;;;;26.85;15.15;;;4.00;98.80;;;;;;5071826;28;20484;-80
2021/11/27 09:13:20;;;;;;;32.03;15.52;;;4.00;98.70;;;;;;5070251;28;20554;-81
2021/11/27 09:15:46;;;;;;;26.95;15.23;;;4.00;98.70;;;;;;5069286;28;20029;-81
2021/11/27 09:18:12;;;;;;;29.15;14.10;;;4.10;98.70;;;;;;5052119;28;20119;-81
2021/11/27 09:20:38;;;;;;;27.25;14.90;;;4.10;98.70;;;;;;5046571;28;20040;-79
2021/11/27 09:23:06;;;;;;;29.52;15.65;;;4.10;98.60;;;;;;5070322;28;20033;-81
2021/11/27 09:25:31;;;;;;;28.48;14.85;;;4.20;98.70;;;;;;5068971;28;20082;-82
2021/11/27 09:27:58;;;;;;;32.90;14.75;;;4.10;98.60;;;;;;5069087;28;20388;-81
2021/11/27 09:30:26;;;;;;;38.42;14.98;;;4.20;98.60;;;;;;5072051;28;20036;-81
2021/11/27 09:32:52;;;;;;;38.22;15.65;;;4.20;98.60;;;;;;5067945;28;20028;-81
2021/11/27 09:35:18;;;;;;;35.38;14.45;;;4.20;98.60;;;;;;5067973;28;20037;-81
2021/11/27 09:37:43;;;;;;;34.88;13.95;;;4.20;98.60;;;;;;5054220;28;20025;-81
2021/11/27 09:40:10;;;;;;;35.42;15.20;;;4.30;98.60;;;;;;5054242;28;20075;-81
2021/11/27 09:42:37;;;;;;;34.45;15.30;;;4.30;98.50;;;;;;5015617;28;20060;-81
2021/11/27 09:45:05;;;;;;;25.73;13.50;;;4.30;98.50;;;;;;5046025;28;20020;-81
2021/11/27 09:47:33;;;;;;;32.53;14.15;;;4.30;98.50;;;;;;5050326;28;20026;-81
2021/11/27 09:50:02;;;;;;;35.20;14.25;;;4.30;98.50;;;;;;5034180;28;20477;-81
2021/11/27 09:52:28;;;;;;;;;;;4.30;98.50;;;;;;5072404;28;20516;-80
2021/11/27 09:54:54;;;;;;;27.67;13.73;;;4.30;98.60;;;;;;5054117;28;19917;-80
2021/11/27 09:57:19;;;;;;;29.23;13.48;;;4.40;98.60;;;;;;5048287;28;20080;-81
2021/11/27 09:59:46;;;;;;;27.95;12.45;;;4.40;98.50;;;;;;5053767;28;20043;-81
2021/11/27 10:02:17;;;;;;;28.10;12.30;;;4.50;98.50;;;;;;5053994;28;20029;-81
2021/11/27 10:04:49;;;;;;;25.15;12.40;;;4.50;98.80;;;;;;5046222;28;20052;-81
2021/11/27 10:07:17;;;;;;;29.08;11.32;;;4.50;98.40;;;;;;5046742;28;20099;-81
2021/11/27 10:09:45;;;;;;;23.45;12.57;;;4.60;98.40;;;;;;5036889;28;20033;-82
2021/11/27 10:12:12;;;;;;;21.35;11.55;;;4.60;98.40;;;;;;5066967;28;20036;-81
2021/11/27 10:14:39;;;;;;;30.73;12.57;;;4.70;98.40;;;;;;5071783;28;20037;-81
2021/11/27 10:17:07;;;;;;;30.58;12.00;;;4.70;98.20;;;;;;5049995;28;20032;-81
2021/11/27 10:19:42;;;;;;;24.23;11.05;;;4.70;98.10;;;;;;5054219;28;20039;-81
2021/11/27 10:22:09;;;;;;;29.60;11.23;;;4.80;98.10;;;;;;5058026;28;20500;-81
2021/11/27 10:24:36;;;;;;;27.88;10.20;;;4.80;98.00;;;;;;5054601;28;20117;-79
2021/11/27 10:27:03;;;;;;;23.13;10.27;;;4.80;98.00;;;;;;5071595;28;20369;-79
2021/11/27 10:29:29;;;;;;;22.25;10.50;;;4.90;97.80;;;;;;5054374;28;20103;-81
2021/11/27 10:32:10;;;;;;;19.65;10.57;;;4.90;97.80;;;;;;5054631;28;20136;-82
2021/11/27 10:34:38;;;;;;;25.60;10.60;;;5.00;97.80;;;;;;5072535;28;20047;-81
2021/11/27 10:37:32;;;;;;;32.47;10.35;;;5.00;97.50;;;;;;5054391;28;20069;-82
2021/11/27 10:40:11;;;;;;;20.33;8.68;;;5.10;97.50;;;;;;5072704;28;20031;-82
2021/11/27 10:42:42;;;;;;;26.42;10.45;;;5.20;97.40;;;;;;5072605;28;20025;-82
2021/11/27 10:45:21;;;;;;;23.77;9.40;;;5.20;97.30;;;;;;5071998;28;20056;-81
2021/11/27 10:47:49;;;;;;;19.98;8.73;;;5.20;97.10;;;;;;5045329;28;20082;-82
2021/11/27 10:50:20;;;;;;;19.92;8.95;;;5.30;97.00;;;;;;5052059;28;20055;-82
2021/11/27 10:52:51;;;;;;;22.08;9.10;;;5.30;96.90;;;;;;5034796;28;20150;-82
2021/11/27 10:55:23;;;;;;;18.25;8.63;;;5.40;96.80;;;;;;5052047;28;20055;-81
2021/11/27 10:57:55;;;;;;;23.17;8.82;;;5.40;96.90;;;;;;5063824;28;20023;-81
2021/11/27 11:00:40;;;;;;;22.02;8.65;;;5.40;96.80;;;;;;5070857;28;20469;-81
2021/11/27 11:03:24;;;;;;;27.42;9.13;;;5.50;96.80;;;;;;5056944;28;20041;-81
2021/11/27 11:05:50;;;;;;;22.45;8.07;;;5.50;96.70;;;;;;5076215;28;20029;-81
2021/11/27 11:08:28;;;;;;;20.45;8.65;;;5.50;96.60;;;;;;5075988;28;20038;-81
2021/11/27 11:10:54;;;;;;;20.27;7.68;;;5.60;96.40;;;;;;5075980;28;20025;-81
2021/11/27 11:13:21;;;;;;;17.58;7.22;;;5.60;96.60;;;;;;5075691;28;20028;-81
2021/11/27 11:15:48;;;;;;;20.05;7.13;;;5.60;96.50;;;;;;5057825;28;20097;-81
2021/11/27 11:18:17;;;;;;;16.80;6.68;;;5.70;96.20;;;;;;5073524;28;20029;-81
2021/11/27 11:21:01;;;;;;;15.60;6.82;;;5.70;96.20;;;;;;5072477;28;20388;-81
2021/11/27 11:23:29;;;;;;;21.65;7.22;;;5.80;96.10;;;;;;5072294;28;20041;-82
2021/11/27 11:26:03;;;;;;;18.40;6.50;;;5.80;96.00;;;;;;5056504;28;20147;-81
2021/11/27 11:28:47;;;;;;;20.02;7.47;;;5.90;95.90;;;;;;5074851;28;20020;-81
2021/11/27 11:31:20;;;;;;;18.73;7.28;;;5.90;95.80;;;;;;5075251;28;20028;-81
2021/11/27 11:33:49;;;;;;;18.58;7.03;;;6.20;95.30;;;;;;5075443;28;20032;-81
2021/11/27 11:36:17;;;;;;;20.00;7.28;;;6.80;94.00;;;;;;5056971;28;20107;-81
2021/11/27 11:38:49;;;;;;;20.27;7.32;;;7.50;92.50;;;;;;5056994;28;20394;-81
2021/11/27 11:41:16;;;;;;;17.92;7.50;;;8.00;91.00;;;;;;5054064;28;20029;-81
2021/11/27 11:43:43;;;;;;;21.55;8.23;;;8.40;89.00;;;;;;5037215;28;20028;-81
2021/11/27 11:46:09;;;;;;;17.60;7.35;;;8.70;87.80;;;;;;5037582;28;20056;-81
2021/11/27 11:48:37;;;;;;;14.65;6.68;;;9.00;86.40;;;;;;5037263;28;20478;-81
2021/11/27 11:51:13;;;;;;;23.33;7.03;;;9.30;85.40;;;;;;5036913;28;20040;-82
2021/11/27 11:53:40;;;;;;;20.40;6.60;;;9.40;84.70;;;;;;5054743;28;20485;-81
2021/11/27 11:56:08;;;;;;;16.98;7.13;;;9.50;84.00;;;;;;5044060;28;20036;-81
2021/11/27 11:58:37;;;;;;;12.73;5.63;;;9.70;83.30;;;;;;5075194;28;20029;-81
2021/11/27 12:01:15;;;;;;;22.67;6.40;;;9.80;82.80;;;;;;5075248;28;20028;-81
2021/11/27 12:03:43;;;;;;;15.13;6.20;;;9.70;82.50;;;;;;5057011;28;20032;-82
2021/11/27 12:06:14;;;;;;;21.65;7.22;;;9.60;83.40;;;;;;5075184;28;20020;-81
2021/11/27 12:09:03;;;;;;;19.52;5.65;;;9.70;82.90;;;;;;5057004;28;20071;-81
2021/11/27 12:11:53;;;;;;;19.07;5.47;;;9.80;83.10;;;;;;5055433;28;20086;-81
2021/11/27 12:14:21;;;;;;;13.43;4.90;;;9.70;82.70;;;;;;5047794;28;20059;-81
2021/11/27 12:17:19;;;;;;;13.45;4.78;;;9.40;84.30;;;;;;5072646;28;20024;-81
2021/11/27 12:19:56;;;;;;;11.82;4.95;;;8.90;85.00;;;;;;5065632;28;20024;-81
2021/11/27 12:22:42;;;;;;;15.52;4.75;;;8.60;86.90;;;;;;5068071;28;20039;-82
2021/11/27 12:25:09;;;;;;;19.25;4.72;;;8.60;87.70;;;;;;5073584;28;20108;-82
2021/11/27 12:28:06;;;;;;;13.73;4.15;;;8.70;87.30;;;;;;5073601;28;20178;-81
2021/11/27 12:30:44;;;;;;;11.90;4.15;;;8.50;88.10;;;;;;5065280;28;20032;-82
2021/11/27 12:33:45;;;;;;;12.77;4.47;;;8.20;89.60;;;;;;5072972;28;20487;-82
2021/11/27 12:36:26;;;;;;;16.50;4.65;;;8.00;90.00;;;;;;5073884;28;20024;-82
2021/11/27 12:39:11;;;;;;;11.57;3.97;;;8.00;90.20;;;;;;5074043;28;20527;-82
2021/11/27 12:41:39;;;;;;;17.90;4.72;;;8.10;90.30;;;;;;5073768;28;20797;-82
2021/11/27 12:44:28;;;;;;;15.30;5.00;;;8.20;90.00;;;;;;5060545;28;20021;-82
2021/11/27 12:47:22;;;;;;;11.57;3.58;;;8.60;87.30;;;;;;5056884;28;20020;-82
2021/11/27 12:49:52;;;;;;;12.60;4.30;;;9.00;85.90;;;;;;5071746;28;20796;-83
2021/11/27 12:52:20;;;;;;;12.55;3.42;;;9.00;85.80;;;;;;5071068;28;20032;-82